Time;durP1;ratioP1;P1;durP2;ratioP2;P2;SDS_P1;SDS_P2;PMS_P1;PMS_P2;Temp;Humidity;BMP_temperature;BMP_pressure;BME280_temperature;BME280_humidity;BME280_pressure;Samples;Min_cycle;Max_cycle;Signal;HPM_P1;HPM_P2
2023/03/13 00:01:33;;;;;;;19.00;5.05;;;;;;;9.12;99.56;100217.72;4874124;29;20029;-64
2023/03/13 00:03:58;;;;;;;;;;;;;;;9.14;97.46;100216.06;4874843;29;20465;-64
2023/03/13 00:06:27;;;;;;;27.70;4.95;;;;;;;9.10;100.00;100214.25;4874083;29;19955;-64
2023/03/13 00:08:53;;;;;;;22.35;5.00;;;;;;;9.08;100.00;100204.66;4873314;29;20065;-64
2023/03/13 00:11:19;;;;;;;16.45;4.55;;;;;;;9.04;100.00;100202.00;4875197;29;20544;-64
2023/03/13 00:13:45;;;;;;;22.95;5.13;;;;;;;9.01;100.00;100198.50;4873699;29;20092;-64
2023/03/13 00:16:14;;;;;;;23.45;5.22;;;;;;;8.97;100.00;100191.47;4856971;29;20025;-64
2023/03/13 00:18:45;;;;;;;23.45;5.22;;;;;;;8.97;100.00;100186.28;4873160;29;20017;-64
2023/03/13 00:21:10;;;;;;;25.00;6.28;;;;;;;8.94;100.00;100168.91;4873303;29;20503;-64
2023/03/13 00:23:37;;;;;;;22.35;4.70;;;;;;;8.91;100.00;100176.63;4874313;29;20729;-64
2023/03/13 00:26:08;;;;;;;21.83;5.20;;;;;;;8.87;100.00;100165.28;4871690;29;20029;-64
2023/03/13 00:28:35;;;;;;;24.52;5.18;;;;;;;8.84;100.00;100162.63;4873488;29;20028;-64
2023/03/13 00:31:12;;;;;;;20.67;5.07;;;;;;;8.81;100.00;100160.00;4874827;29;20041;-65
2023/03/13 00:33:40;;;;;;;21.10;5.30;;;;;;;8.79;100.00;100161.69;4879638;29;20029;-65
2023/03/13 00:36:08;;;;;;;18.83;4.60;;;;;;;8.76;100.00;100146.06;4881171;29;20595;-64
2023/03/13 00:38:34;;;;;;;22.92;5.28;;;;;;;8.75;100.00;100141.69;4881566;29;20092;-64
2023/03/13 00:41:01;;;;;;;23.90;5.25;;;;;;;8.73;100.00;100130.38;4881064;29;20025;-64
2023/03/13 00:43:27;;;;;;;20.65;5.22;;;;;;;8.70;100.00;100123.44;4882296;29;20025;-64
2023/03/13 00:45:52;;;;;;;22.05;5.43;;;;;;;8.71;100.00;100121.69;4882218;29;20480;-64
2023/03/13 00:48:17;;;;;;;19.73;5.18;;;;;;;8.69;100.00;100119.06;4883787;29;20045;-64
2023/03/13 00:50:42;;;;;;;25.75;5.15;;;;;;;8.69;100.00;100118.19;4882596;29;20029;-64
2023/03/13 00:53:08;;;;;;;19.15;5.57;;;;;;;8.70;100.00;100106.94;4882581;29;20120;-64
2023/03/13 00:55:33;;;;;;;19.70;5.38;;;;;;;8.71;100.00;100108.72;4882582;29;20517;-64
2023/03/13 00:57:58;;;;;;;25.20;5.55;;;;;;;8.70;100.00;100101.75;4881593;29;20037;-67
2023/03/13 01:00:24;;;;;;;25.25;6.05;;;;;;;8.69;100.00;100100.03;4882755;29;20401;-67
2023/03/13 01:02:49;;;;;;;26.63;6.18;;;;;;;8.70;100.00;100094.84;4881754;29;20535;-67
2023/03/13 01:05:14;;;;;;;22.95;5.88;;;;;;;8.70;100.00;100080.97;4882676;29;20029;-67
2023/03/13 01:07:40;;;;;;;22.52;6.38;;;;;;;8.72;100.00;100081.91;4882887;29;20035;-67
2023/03/13 01:10:06;;;;;;;25.40;5.45;;;;;;;8.73;100.00;100074.97;4882120;29;20615;-67
2023/03/13 01:12:31;;;;;;;23.63;5.63;;;;;;;8.74;100.00;100067.22;4880677;29;20339;-67
2023/03/13 01:14:56;;;;;;;19.88;6.05;;;;;;;8.74;100.00;100059.41;4880069;29;20560;-67
2023/03/13 01:17:21;;;;;;;25.45;7.07;;;;;;;8.78;100.00;100057.75;4881075;29;20029;-67
2023/03/13 01:19:47;;;;;;;23.80;6.22;;;;;;;8.80;100.00;100050.88;4879018;29;20452;-67
2023/03/13 01:22:12;;;;;;;20.52;7.25;;;;;;;8.81;100.00;100040.50;4879470;29;20440;-67
2023/03/13 01:24:37;;;;;;;26.50;7.30;;;;;;;8.83;100.00;100041.38;4881313;29;20497;-67
2023/03/13 01:27:03;;;;;;;27.23;7.03;;;;;;;8.86;100.00;100033.66;4882032;29;20032;-67
2023/03/13 01:29:28;;;;;;;21.75;7.00;;;;;;;8.88;100.00;100016.38;4879511;29;20059;-67
2023/03/13 01:31:53;;;;;;;19.25;7.22;;;;;;;8.93;100.00;100011.25;4875746;29;20251;-67
2023/03/13 01:34:18;;;;;;;21.42;6.82;;;;;;;8.97;100.00;100020.84;4872995;29;20492;-67
2023/03/13 01:36:45;;;;;;;16.13;6.50;;;;;;;9.01;100.00;100014.00;4872981;29;20040;-67
2023/03/13 01:39:11;;;;;;;18.70;6.50;;;;;;;9.05;100.00;100010.56;4873056;29;20068;-67
2023/03/13 01:41:37;;;;;;;23.08;6.82;;;;;;;9.10;100.00;100010.66;4871333;29;20508;-67
2023/03/13 01:44:02;;;;;;;19.88;6.63;;;;;;;9.15;100.00;100004.69;4872837;29;20492;-66
2023/03/13 01:46:29;;;;;;;20.92;6.93;;;;;;;9.17;100.00;99995.19;4872223;29;20025;-67
2023/03/13 01:48:58;;;;;;;18.67;6.38;;;;;;;9.25;100.00;99989.22;4872417;29;20441;-67
2023/03/13 01:51:32;;;;;;;19.03;6.40;;;;;;;9.31;100.00;99989.31;4870274;29;20036;-67
2023/03/13 01:54:22;;;;;;;17.90;6.75;;;;;;;9.35;100.00;99970.31;4870062;29;20293;-67
2023/03/13 01:56:53;;;;;;;18.08;6.50;;;;;;;9.36;100.00;99970.34;4872375;29;20512;-67
2023/03/13 01:59:27;;;;;;;20.92;6.60;;;;;;;9.42;100.00;99969.56;4871675;29;20029;-67
2023/03/13 02:01:56;;;;;;;18.20;5.30;;;;;;;9.47;100.00;99961.81;4871861;29;20163;-67
2023/03/13 02:04:23;;;;;;;14.80;5.95;;;;;;;9.50;100.00;99952.34;4872433;29;20056;-67
2023/03/13 02:06:53;;;;;;;18.70;5.13;;;;;;;9.56;100.00;99947.22;4871180;29;20043;-67
2023/03/13 02:09:22;;;;;;;19.83;5.10;;;;;;;9.59;100.00;99928.19;4872385;29;20063;-67
2023/03/13 02:12:03;;;;;;;20.73;5.38;;;;;;;9.63;100.00;99926.47;4872056;29;20054;-67
2023/03/13 02:14:32;;;;;;;15.48;4.97;;;;;;;9.66;100.00;99916.09;4871716;29;20069;-67
2023/03/13 02:16:59;;;;;;;20.38;5.45;;;;;;;9.72;100.00;99911.88;4872191;29;20028;-67
2023/03/13 02:19:38;;;;;;;18.55;5.47;;;;;;;9.78;100.00;99910.19;4871667;29;20116;-67
2023/03/13 02:22:31;;;;;;;16.23;4.68;;;;;;;9.81;100.00;99892.03;4872158;29;20191;-67
2023/03/13 02:25:03;;;;;;;15.27;5.35;;;;;;;9.82;100.00;99879.03;4870077;29;20277;-67
2023/03/13 02:27:29;;;;;;;16.83;5.50;;;;;;;9.86;100.00;99865.19;4871894;29;20044;-64
2023/03/13 02:29:54;;;;;;;16.77;5.93;;;;;;;9.87;100.00;99874.72;4870772;29;20043;-64
2023/03/13 02:32:21;;;;;;;21.50;5.45;;;;;;;9.90;100.00;99876.50;4869351;29;20547;-65
2023/03/13 02:34:51;;;;;;;18.90;5.57;;;;;;;9.91;100.00;99875.66;4890790;29;20025;-64
2023/03/13 02:37:18;;;;;;;19.73;5.80;;;;;;;9.92;100.00;99872.16;4887814;29;20033;-64
2023/03/13 02:39:49;;;;;;;15.73;5.68;;;;;;;9.95;100.00;99871.34;4890195;29;20024;-64
2023/03/13 02:42:17;;;;;;;18.75;6.32;;;;;;;9.96;100.00;99876.56;4890811;29;20039;-64
2023/03/13 02:44:45;;;;;;;19.17;5.87;;;;;;;9.98;100.00;99868.75;4890608;29;20031;-64
2023/03/13 02:47:11;;;;;;;20.00;6.95;;;;;;;10.00;100.00;99856.66;4890596;29;20036;-65
2023/03/13 02:49:36;;;;;;;16.90;6.30;;;;;;;10.02;100.00;99870.53;4890686;29;20028;-65
2023/03/13 02:52:16;;;;;;;19.80;6.85;;;;;;;10.04;100.00;99864.50;4873645;29;20036;-64
2023/03/13 02:54:44;;;;;;;25.05;7.10;;;;;;;10.09;100.00;99867.16;4890962;29;20037;-65
2023/03/13 02:57:09;;;;;;;20.50;7.28;;;;;;;10.13;100.00;99855.91;4890640;29;20563;-64
2023/03/13 02:59:34;;;;;;;17.27;7.57;;;;;;;10.16;100.00;99865.50;4891302;29;20028;-64
2023/03/13 03:02:00;;;;;;;21.42;7.45;;;;;;;10.19;100.00;99862.91;4891344;29;20040;-64
2023/03/13 03:04:26;;;;;;;20.02;7.85;;;;;;;10.24;100.00;99856.88;4890433;29;20662;-65
2023/03/13 03:06:52;;;;;;;21.50;7.75;;;;;;;10.27;100.00;99864.72;4890908;29;20059;-65
2023/03/13 03:09:18;;;;;;;19.95;8.02;;;;;;;10.26;100.00;99860.38;4891034;29;20128;-64
2023/03/13 03:11:44;;;;;;;18.73;7.63;;;;;;;10.27;100.00;99861.25;4887472;29;20025;-64
2023/03/13 03:14:10;;;;;;;19.77;7.85;;;;;;;10.30;100.00;99870.81;4888783;29;20040;-65
2023/03/13 03:16:36;;;;;;;20.23;7.57;;;;;;;10.34;100.00;99872.59;4889334;29;20036;-67
2023/03/13 03:19:02;;;;;;;25.15;8.40;;;;;;;10.34;100.00;99870.00;4889157;29;20044;-67
2023/03/13 03:21:27;;;;;;;20.15;7.82;;;;;;;10.37;100.00;99859.63;4890349;29;20028;-67
2023/03/13 03:23:53;;;;;;;24.02;7.65;;;;;;;10.39;100.00;99860.50;4890290;29;20548;-67
2023/03/13 03:26:18;;;;;;;22.77;8.57;;;;;;;10.40;100.00;99855.31;4888887;29;20037;-67
2023/03/13 03:28:44;;;;;;;21.58;8.10;;;;;;;10.43;100.00;99859.69;4889249;29;20044;-67
2023/03/13 03:31:11;;;;;;;23.73;7.82;;;;;;;10.44;100.00;99845.78;4882295;29;20057;-67
2023/03/13 03:33:37;;;;;;;23.33;8.05;;;;;;;10.46;100.00;99835.38;4854657;29;20452;-68
2023/03/13 03:36:06;;;;;;;20.10;7.65;;;;;;;10.49;100.00;99836.28;4872603;29;20037;-67
2023/03/13 03:38:32;;;;;;;25.20;8.63;;;;;;;10.54;100.00;99849.34;4872176;29;20068;-67
2023/03/13 03:40:57;;;;;;;23.23;8.10;;;;;;;10.56;100.00;99838.09;4872831;29;20067;-67
2023/03/13 03:43:22;;;;;;;24.67;8.50;;;;;;;10.55;100.00;99838.94;4872521;29;20412;-67
2023/03/13 03:45:48;;;;;;;24.20;8.85;;;;;;;10.58;100.00;99838.94;4872328;29;20049;-67
2023/03/13 03:48:13;;;;;;;24.45;9.32;;;;;;;10.61;100.00;99846.78;4871463;29;20496;-65
2023/03/13 03:50:39;;;;;;;22.17;9.02;;;;;;;10.61;100.00;99836.38;4871114;29;20025;-65
2023/03/13 03:53:04;;;;;;;23.08;9.20;;;;;;;10.63;100.00;99851.13;4871084;29;20035;-65
2023/03/13 03:55:29;;;;;;;26.52;9.73;;;;;;;10.63;100.00;99844.22;4871129;29;20077;-65
2023/03/13 03:57:54;;;;;;;25.00;10.10;;;;;;;10.65;100.00;99842.47;4871525;29;20112;-65
2023/03/13 04:00:20;;;;;;;28.42;9.18;;;;;;;10.66;100.00;99833.81;4870454;29;20169;-64
2023/03/13 04:02:46;;;;;;;24.98;9.10;;;;;;;10.72;100.00;99843.41;4870942;29;20092;-65
2023/03/13 04:05:12;;;;;;;29.38;10.13;;;;;;;10.73;100.00;99832.09;4871792;29;21462;-65
2023/03/13 04:07:38;;;;;;;31.63;10.57;;;;;;;10.78;100.00;99840.84;4871369;29;20045;-65
2023/03/13 04:10:04;;;;;;;29.73;10.60;;;;;;;10.82;100.00;99829.56;4871633;29;20373;-64
2023/03/13 04:12:29;;;;;;;28.30;10.57;;;;;;;10.84;100.00;99825.22;4869984;29;20059;-64
2023/03/13 04:14:55;;;;;;;29.33;10.88;;;;;;;10.87;100.00;99825.25;4871559;29;20033;-65
2023/03/13 04:17:20;;;;;;;31.05;11.10;;;;;;;10.90;100.00;99834.81;4872016;29;20043;-67
2023/03/13 04:19:45;;;;;;;27.13;11.13;;;;;;;10.94;100.00;99832.22;4875255;29;20112;-68
2023/03/13 04:22:11;;;;;;;28.92;10.75;;;;;;;10.98;100.00;99816.59;4874157;29;20061;-67
2023/03/13 04:24:36;;;;;;;26.88;9.30;;;;;;;11.01;100.00;99803.59;4875017;29;20029;-67
2023/03/13 04:27:05;;;;;;;28.25;9.88;;;;;;;11.06;100.00;99799.28;4873854;29;20084;-67
2023/03/13 04:29:31;;;;;;;25.92;9.73;;;;;;;11.11;100.00;99794.97;4856645;29;20029;-67
2023/03/13 04:31:56;;;;;;;23.40;9.82;;;;;;;11.14;100.00;99794.97;4873093;29;20048;-67
2023/03/13 04:34:21;;;;;;;26.20;10.07;;;;;;;11.20;100.00;99786.31;4874163;29;20029;-67
2023/03/13 04:36:47;;;;;;;21.52;8.63;;;;;;;11.24;100.00;99780.22;4873044;29;20397;-68
2023/03/13 04:39:12;;;;;;;21.85;8.43;;;;;;;11.25;100.00;99767.22;4873869;29;20032;-67
2023/03/13 04:41:37;;;;;;;22.65;8.45;;;;;;;11.29;100.00;99766.34;4874829;29;20040;-67
2023/03/13 04:44:03;;;;;;;18.73;7.75;;;;;;;11.30;100.00;99777.66;4874808;29;21148;-68
2023/03/13 04:46:28;;;;;;;16.63;7.43;;;;;;;11.33;100.00;99769.84;4874574;29;20037;-68
2023/03/13 04:48:53;;;;;;;16.63;7.00;;;;;;;11.36;100.00;99767.25;4874634;29;20029;-68
2023/03/13 04:51:19;;;;;;;17.88;7.70;;;;;;;11.39;100.00;99766.38;4874136;29;20628;-67
2023/03/13 04:53:44;;;;;;;17.25;7.20;;;;;;;11.45;100.00;99755.97;4874046;29;20033;-67
2023/03/13 04:56:13;;;;;;;15.07;6.90;;;;;;;11.46;100.00;99755.09;4875239;29;20028;-65
2023/03/13 04:58:38;;;;;;;19.45;7.20;;;;;;;11.48;100.00;99761.19;4874525;29;20025;-64
2023/03/13 05:01:03;;;;;;;17.58;6.30;;;;;;;11.52;100.00;99756.84;4874465;29;20408;-65
2023/03/13 05:03:29;;;;;;;15.80;6.38;;;;;;;11.56;100.00;99742.97;4856933;29;20033;-65
2023/03/13 05:05:54;;;;;;;13.93;6.38;;;;;;;11.59;100.00;99756.84;4874799;29;20108;-65
2023/03/13 05:08:19;;;;;;;16.77;6.50;;;;;;;11.61;100.00;99744.66;4874119;29;20036;-64
2023/03/13 05:10:45;;;;;;;15.75;6.15;;;;;;;11.62;100.00;99735.13;4874693;29;20596;-64
2023/03/13 05:13:11;;;;;;;13.10;5.80;;;;;;;11.62;100.00;99735.13;4873057;29;20313;-65
2023/03/13 05:15:36;;;;;;;19.50;5.60;;;;;;;11.67;100.00;99730.78;4854960;29;20209;-64
2023/03/13 05:18:01;;;;;;;14.32;5.60;;;;;;;11.70;100.00;99732.53;4872251;29;20069;-64
2023/03/13 05:20:27;;;;;;;15.20;5.93;;;;;;;11.75;100.00;99736.00;4873945;29;20108;-65
2023/03/13 05:22:52;;;;;;;14.48;5.65;;;;;;;11.78;100.00;99729.03;4873037;29;20057;-64
2023/03/13 05:25:17;;;;;;;14.95;5.50;;;;;;;11.80;100.00;99721.22;4856881;29;20799;-65
2023/03/13 05:27:44;;;;;;;15.55;5.75;;;;;;;11.84;100.00;99726.44;4871899;29;20044;-65
2023/03/13 05:30:10;;;;;;;12.82;5.03;;;;;;;11.87;100.00;99722.97;4872887;29;20683;-64
2023/03/13 05:32:35;;;;;;;14.00;5.50;;;;;;;11.87;100.00;99729.94;4879593;29;20048;-64
2023/03/13 05:35:00;;;;;;;11.65;5.47;;;;;;;11.87;100.00;99720.34;4879574;29;20040;-64
2023/03/13 05:37:26;;;;;;;11.75;4.82;;;;;;;11.90;100.00;99715.13;4880382;29;20036;-67
2023/03/13 05:39:51;;;;;;;12.93;4.95;;;;;;;11.89;100.00;99726.47;4880775;29;20492;-67
2023/03/13 05:42:16;;;;;;;12.35;4.97;;;;;;;11.89;100.00;99731.69;4881017;29;20064;-67
2023/03/13 05:44:41;;;;;;;9.40;4.60;;;;;;;11.91;100.00;99729.06;4880592;29;20488;-67
2023/03/13 05:47:07;;;;;;;11.65;4.95;;;;;;;11.91;100.00;99722.09;4878637;29;20618;-68
2023/03/13 05:49:32;;;;;;;11.45;5.07;;;;;;;11.92;100.00;99734.28;4881025;29;20408;-68
2023/03/13 05:51:57;;;;;;;12.40;4.70;;;;;;;11.93;100.00;99716.88;4881557;29;20127;-68
2023/03/13 05:54:23;;;;;;;10.32;4.60;;;;;;;11.95;100.00;99720.41;4879953;29;20400;-67
2023/03/13 05:56:49;;;;;;;12.25;4.57;;;;;;;11.92;100.00;99723.84;4879323;29;20040;-67
2023/03/13 05:59:14;;;;;;;11.80;4.82;;;;;;;11.94;100.00;99724.72;4880540;29;20151;-68
2023/03/13 06:01:40;;;;;;;11.98;4.50;;;;;;;12.02;100.00;99723.84;4880569;29;20124;-68
2023/03/13 06:04:05;;;;;;;10.68;4.47;;;;;;;12.03;100.00;99731.69;4878910;29;20472;-67
2023/03/13 06:06:30;;;;;;;9.95;4.85;;;;;;;12.02;100.00;99747.34;4880015;29;20184;-64
2023/03/13 06:08:56;;;;;;;14.07;4.68;;;;;;;12.05;100.00;99726.47;4876966;29;20044;-64
2023/03/13 06:11:21;;;;;;;13.65;4.85;;;;;;;12.07;100.00;99737.78;4879990;29;20029;-64
2023/03/13 06:13:46;;;;;;;9.57;4.57;;;;;;;12.07;100.00;99738.66;4879099;29;20489;-64
2023/03/13 06:16:11;;;;;;;10.18;4.03;;;;;;;12.07;100.00;99724.75;4879357;29;20543;-65
2023/03/13 06:18:37;;;;;;;12.32;4.90;;;;;;;12.10;100.00;99724.75;4880749;29;20032;-64
2023/03/13 06:21:02;;;;;;;12.80;4.20;;;;;;;12.13;100.00;99706.44;4863196;29;20551;-64
2023/03/13 06:23:28;;;;;;;10.00;4.38;;;;;;;12.10;100.00;99707.31;4877745;29;20674;-64
2023/03/13 06:25:54;;;;;;;12.85;4.40;;;;;;;12.10;100.00;99720.38;4871764;29;20043;-65
2023/03/13 06:28:19;;;;;;;12.25;4.72;;;;;;;12.09;99.85;99708.19;4879755;29;20041;-64
2023/03/13 06:30:45;;;;;;;12.35;4.50;;;;;;;12.10;99.60;99717.75;4878921;29;20186;-65
2023/03/13 06:33:11;;;;;;;11.82;4.45;;;;;;;12.09;99.43;99717.75;4877719;29;20037;-64
2023/03/13 06:35:40;;;;;;;12.73;4.75;;;;;;;12.09;99.64;99705.56;4876825;29;20044;-65
2023/03/13 06:38:05;;;;;;;11.65;4.63;;;;;;;12.10;99.12;99709.94;4878321;29;20043;-64
2023/03/13 06:40:30;;;;;;;13.60;4.20;;;;;;;12.12;99.32;99702.09;4878444;29;20182;-64
2023/03/13 06:42:56;;;;;;;11.10;4.70;;;;;;;12.13;99.10;99711.66;4879895;29;20093;-65
2023/03/13 06:45:21;;;;;;;13.13;4.25;;;;;;;12.13;98.90;99711.66;4878642;29;20048;-65
2023/03/13 06:47:51;;;;;;;13.35;4.50;;;;;;;12.17;98.55;99723.84;4877643;29;20059;-65
2023/03/13 06:50:16;;;;;;;14.73;4.55;;;;;;;12.17;98.36;99713.41;4880161;29;20056;-64
2023/03/13 06:52:42;;;;;;;12.60;4.40;;;;;;;12.23;98.21;99722.97;4879088;29;20172;-64
2023/03/13 06:55:08;;;;;;;14.02;4.25;;;;;;;12.23;97.49;99710.78;4880163;29;20033;-65
2023/03/13 06:57:33;;;;;;;12.05;4.50;;;;;;;12.25;97.66;99713.38;4879755;29;20504;-65
2023/03/13 06:59:58;;;;;;;11.98;4.70;;;;;;;12.24;97.84;99698.59;4880095;29;20028;-64
2023/03/13 07:02:24;;;;;;;13.98;4.15;;;;;;;12.24;97.92;99707.31;4879609;29;20599;-64
2023/03/13 07:04:49;;;;;;;13.70;4.90;;;;;;;12.25;97.88;99710.78;4878727;29;20045;-64
2023/03/13 07:07:14;;;;;;;14.10;5.10;;;;;;;12.25;97.74;99703.84;4877371;29;20025;-64
2023/03/13 07:09:40;;;;;;;12.30;4.40;;;;;;;12.25;97.73;99706.44;4877621;29;20131;-65
2023/03/13 07:12:06;;;;;;;13.55;4.65;;;;;;;12.25;97.46;99722.13;4880629;29;20036;-64
2023/03/13 07:14:31;;;;;;;13.98;4.75;;;;;;;12.26;97.72;99710.78;4878677;29;20456;-65
2023/03/13 07:16:58;;;;;;;12.73;4.40;;;;;;;12.30;97.10;99714.28;4880888;29;21086;-65
2023/03/13 07:19:23;;;;;;;9.90;4.70;;;;;;;12.30;97.07;99699.44;4877479;29;20493;-65
2023/03/13 07:21:49;;;;;;;12.90;4.55;;;;;;;12.38;96.72;99706.41;4879315;29;20057;-64
2023/03/13 07:24:14;;;;;;;11.77;4.20;;;;;;;12.39;96.82;99698.56;4876569;29;20036;-65
2023/03/13 07:26:40;;;;;;;15.00;4.45;;;;;;;12.41;96.38;99695.94;4880588;29;20484;-64
2023/03/13 07:29:05;;;;;;;14.07;4.90;;;;;;;12.42;96.69;99705.53;4877232;29;20043;-64
2023/03/13 07:31:32;;;;;;;11.82;4.43;;;;;;;12.42;96.19;99701.16;4876065;29;20124;-65
2023/03/13 07:33:58;;;;;;;11.43;4.30;;;;;;;12.45;96.63;99700.28;4870062;29;20442;-65
2023/03/13 07:36:24;;;;;;;12.55;4.22;;;;;;;12.52;95.85;99704.63;4870115;29;20032;-64
2023/03/13 07:38:51;;;;;;;11.48;3.90;;;;;;;12.55;95.10;99707.22;4870764;29;20041;-64
2023/03/13 07:41:17;;;;;;;11.27;4.30;;;;;;;12.61;95.44;99708.97;4870991;29;20029;-65
2023/03/13 07:43:43;;;;;;;10.20;3.95;;;;;;;12.60;95.54;99705.50;4869373;29;21146;-65
2023/03/13 07:46:12;;;;;;;13.50;4.25;;;;;;;12.60;95.38;99700.25;4871051;29;20029;-64
2023/03/13 07:48:40;;;;;;;11.65;4.35;;;;;;;12.60;95.54;99717.66;4854396;29;20024;-65
2023/03/13 07:51:09;;;;;;;11.02;3.70;;;;;;;12.57;95.70;99710.72;4874408;29;20033;-65
2023/03/13 07:53:34;;;;;;;;;;;;;;;12.60;96.85;99705.50;4875958;29;20052;-65
2023/03/13 07:56:01;;;;;;;10.35;3.80;;;;;;;12.58;95.72;99728.13;4875835;29;20379;-64
2023/03/13 07:58:29;;;;;;;14.13;4.22;;;;;;;12.57;95.83;99715.94;4874340;29;20049;-65
2023/03/13 08:00:55;;;;;;;16.23;4.30;;;;;;;12.57;95.84;99717.69;4856564;29;20033;-65
2023/03/13 08:03:22;;;;;;;12.95;4.40;;;;;;;12.54;96.27;99708.09;4874485;29;20035;-64
2023/03/13 08:05:56;;;;;;;12.43;4.55;;;;;;;12.56;96.07;99711.59;4875496;29;20097;-65
2023/03/13 08:08:21;;;;;;;19.88;4.68;;;;;;;12.62;96.20;99698.50;4873057;29;20041;-64
2023/03/13 08:10:46;;;;;;;12.88;4.43;;;;;;;12.67;96.06;99699.38;4873170;29;20105;-64
2023/03/13 08:13:12;;;;;;;11.07;4.43;;;;;;;12.72;96.16;99688.88;4873329;29;20227;-64
2023/03/13 08:15:37;;;;;;;13.68;4.55;;;;;;;12.77;95.10;99681.88;4874284;29;20477;-64
2023/03/13 08:18:02;;;;;;;13.13;4.25;;;;;;;12.82;95.08;99682.75;4874043;29;20028;-65
2023/03/13 08:20:27;;;;;;;15.30;4.70;;;;;;;12.87;94.37;99681.00;4873166;29;20033;-64
2023/03/13 08:22:54;;;;;;;11.75;3.90;;;;;;;12.93;93.83;99674.84;4873915;29;21200;-64
2023/03/13 08:25:20;;;;;;;10.52;4.15;;;;;;;12.95;93.69;99682.69;4874090;29;20342;-64
2023/03/13 08:27:45;;;;;;;14.10;4.30;;;;;;;12.98;93.40;99682.69;4873696;29;20115;-64
2023/03/13 08:30:11;;;;;;;11.27;4.47;;;;;;;12.98;93.95;99664.38;4874375;29;20133;-64
2023/03/13 08:32:37;;;;;;;12.55;4.07;;;;;;;12.96;93.11;99669.63;4880519;29;20053;-64
2023/03/13 08:35:03;;;;;;;11.38;4.22;;;;;;;12.99;92.68;99679.16;4881042;29;20037;-65
2023/03/13 08:37:28;;;;;;;12.98;4.13;;;;;;;13.04;91.63;99677.41;4881783;29;20115;-65
2023/03/13 08:39:55;;;;;;;11.70;3.70;;;;;;;13.08;92.08;99670.41;4875273;29;20028;-65
2023/03/13 08:42:21;;;;;;;10.32;3.75;;;;;;;13.11;91.68;99665.19;4881556;29;20044;-65
2023/03/13 08:44:47;;;;;;;12.05;4.45;;;;;;;13.14;91.37;99663.41;4882273;29;20052;-64
2023/03/13 08:47:12;;;;;;;11.57;4.00;;;;;;;13.18;91.20;99669.50;4882655;29;20040;-65
2023/03/13 08:49:38;;;;;;;11.32;3.60;;;;;;;13.23;90.53;99662.47;4882671;29;20033;-65
2023/03/13 08:52:04;;;;;;;11.85;3.90;;;;;;;13.26;90.57;99678.16;4882843;29;20286;-65
2023/03/13 08:54:30;;;;;;;9.10;3.40;;;;;;;13.30;89.99;99692.09;4883279;29;20045;-65
2023/03/13 08:56:55;;;;;;;10.13;3.80;;;;;;;13.36;89.34;99671.16;4865589;29;20045;-65
2023/03/13 08:59:21;;;;;;;11.63;3.33;;;;;;;13.36;89.70;99666.78;4882365;29;20092;-65
2023/03/13 09:01:46;;;;;;;10.32;3.40;;;;;;;13.36;89.98;99658.06;4881339;29;20089;-65
2023/03/13 09:04:12;;;;;;;10.43;3.40;;;;;;;13.41;90.22;99684.19;4882285;29;20044;-65
2023/03/13 09:06:38;;;;;;;9.60;3.60;;;;;;;13.42;90.74;99663.25;4882360;29;20178;-65
2023/03/13 09:09:05;;;;;;;8.30;3.17;;;;;;;13.46;89.15;99667.59;4880778;29;20037;-64
2023/03/13 09:11:30;;;;;;;7.00;3.15;;;;;;;13.48;89.16;99657.97;4880610;29;20040;-64
2023/03/13 09:13:58;;;;;;;11.07;3.88;;;;;;;13.52;89.04;99671.91;4879620;29;20397;-65
2023/03/13 09:16:26;;;;;;;8.70;3.78;;;;;;;13.48;89.66;99662.34;4881837;29;20031;-64
2023/03/13 09:18:52;;;;;;;9.93;3.80;;;;;;;13.47;89.91;99655.34;4864518;29;20044;-65
2023/03/13 09:21:26;;;;;;;13.75;4.20;;;;;;;13.48;90.12;99657.09;4880231;29;20092;-65
2023/03/13 09:23:51;;;;;;;10.30;4.25;;;;;;;13.53;91.40;99650.97;4880711;29;20037;-65
2023/03/13 09:26:19;;;;;;;12.20;4.05;;;;;;;13.62;90.43;99639.53;4882448;29;20457;-65
2023/03/13 09:28:44;;;;;;;11.32;3.85;;;;;;;13.77;90.78;99640.28;4879492;29;20025;-65
2023/03/13 09:31:16;;;;;;;13.13;4.22;;;;;;;13.92;91.06;99632.31;4876691;29;20052;-64
2023/03/13 09:33:43;;;;;;;11.23;4.25;;;;;;;14.07;88.70;99631.28;4872939;29;20492;-65
2023/03/13 09:36:09;;;;;;;12.00;4.38;;;;;;;14.21;88.75;99618.03;4872100;29;20039;-65
2023/03/13 09:38:35;;;;;;;12.60;3.90;;;;;;;14.32;87.93;99624.00;4872966;29;20052;-64
2023/03/13 09:41:24;;;;;;;9.60;3.90;;;;;;;14.41;86.82;99617.78;4862763;29;20592;-65
2023/03/13 09:44:01;;;;;;;12.45;3.97;;;;;;;14.52;86.15;99602.81;4858325;29;20136;-65
2023/03/13 09:46:38;;;;;;;11.23;4.13;;;;;;;14.68;85.63;99593.03;4872417;29;20033;-65
2023/03/13 09:49:12;;;;;;;9.98;3.63;;;;;;;14.78;83.40;99575.41;4872074;29;20108;-64
2023/03/13 09:51:42;;;;;;;10.15;3.80;;;;;;;14.81;84.07;99587.63;4871910;29;20064;-65
2023/03/13 09:54:14;;;;;;;11.00;3.85;;;;;;;14.80;83.81;99597.22;4872979;29;20039;-64
2023/03/13 09:57:06;;;;;;;11.80;3.53;;;;;;;14.75;83.30;99593.81;4872756;29;20040;-65
2023/03/13 09:59:45;;;;;;;9.02;3.13;;;;;;;14.69;82.89;99599.16;4860687;29;20132;-65
2023/03/13 10:02:23;;;;;;;9.18;3.20;;;;;;;14.68;83.54;99618.38;4872411;29;20124;-65
2023/03/13 10:04:55;;;;;;;7.72;3.33;;;;;;;14.68;82.26;99582.53;4871521;29;20108;-65
2023/03/13 10:07:21;;;;;;;8.13;3.42;;;;;;;14.69;82.02;99586.03;4871373;29;20421;-65
2023/03/13 10:09:46;;;;;;;8.70;3.55;;;;;;;14.70;81.58;99586.03;4870480;29;20115;-65
2023/03/13 10:12:20;;;;;;;7.95;3.00;;;;;;;14.72;81.38;99571.13;4872654;29;20040;-65
2023/03/13 10:14:59;;;;;;;9.38;3.38;;;;;;;14.85;81.05;99570.97;4870776;29;20037;-65
2023/03/13 10:17:35;;;;;;;9.00;3.58;;;;;;;14.89;79.38;99588.38;4872080;29;20040;-65
2023/03/13 10:20:09;;;;;;;8.88;3.05;;;;;;;14.99;80.30;99565.50;4870739;29;20039;-65
2023/03/13 10:22:36;;;;;;;8.00;3.60;;;;;;;15.04;78.00;99559.28;4872764;29;20175;-65
2023/03/13 10:25:18;;;;;;;9.15;3.50;;;;;;;15.02;78.68;99561.06;4869884;29;20088;-65
2023/03/13 10:27:47;;;;;;;7.65;3.20;;;;;;;14.98;79.46;99571.66;4873260;29;20032;-65
2023/03/13 10:30:34;;;;;;;;;;;;;;;15.03;80.53;99562.78;4871532;29;20041;-65
2023/03/13 10:33:16;;;;;;;7.80;3.10;;;;;;;15.02;78.11;99563.69;4889511;29;19927;-65
2023/03/13 10:35:43;;;;;;;8.55;3.50;;;;;;;15.01;78.17;99556.72;4887655;29;20575;-65
2023/03/13 10:38:18;;;;;;;9.32;3.25;;;;;;;14.98;78.50;99559.38;4890265;29;20389;-65
2023/03/13 10:40:56;;;;;;;8.48;3.20;;;;;;;15.04;79.74;99567.16;4890770;29;20067;-62
2023/03/13 10:43:24;;;;;;;8.15;3.47;;;;;;;15.17;79.02;99564.34;4889312;29;20060;-63
2023/03/13 10:45:51;;;;;;;6.63;2.93;;;;;;;15.21;77.32;99545.06;4890269;29;20047;-62
2023/03/13 10:48:25;;;;;;;10.57;3.45;;;;;;;15.21;76.95;99550.31;4889547;29;20039;-62
2023/03/13 10:50:56;;;;;;;7.70;3.20;;;;;;;15.15;77.20;99566.13;4889862;29;20037;-62
2023/03/13 10:53:30;;;;;;;9.45;3.40;;;;;;;15.11;79.16;99528.59;4889808;29;20123;-62
2023/03/13 10:56:15;;;;;;;11.68;3.63;;;;;;;15.15;79.18;99542.50;4889546;29;20037;-62
2023/03/13 10:58:44;;;;;;;9.48;3.40;;;;;;;15.17;79.67;99544.22;4890860;29;20128;-62
2023/03/13 11:01:16;;;;;;;8.93;3.45;;;;;;;15.19;79.55;99541.56;4890939;29;20028;-62
2023/03/13 11:03:42;;;;;;;7.95;3.55;;;;;;;15.21;78.76;99531.94;4890009;29;20088;-63
2023/03/13 11:06:23;;;;;;;11.23;3.08;;;;;;;15.28;79.13;99557.19;4890937;29;20112;-62
2023/03/13 11:08:48;;;;;;;12.93;3.85;;;;;;;15.29;77.17;99544.03;4889593;29;20044;-62
2023/03/13 11:11:18;;;;;;;9.90;3.65;;;;;;;15.27;77.63;99524.81;4890518;29;20698;-62
2023/03/13 11:13:44;;;;;;;6.60;3.45;;;;;;;15.28;76.80;99530.94;4889554;29;20033;-62
2023/03/13 11:16:26;;;;;;;9.02;3.53;;;;;;;15.27;76.79;99518.69;4888928;29;20036;-62
2023/03/13 11:19:12;;;;;;;9.07;3.75;;;;;;;15.26;76.19;99523.06;4888372;29;20630;-63
2023/03/13 11:22:00;;;;;;;7.88;3.60;;;;;;;15.30;75.22;99516.88;4887252;29;20167;-62
2023/03/13 11:24:53;;;;;;;7.97;3.47;;;;;;;15.39;74.71;99513.22;4888108;29;20107;-62
2023/03/13 11:27:26;;;;;;;7.95;3.13;;;;;;;15.50;72.07;99514.78;4892971;29;20071;-62